createdAt,value
2022-11-10T00:00:46.349Z,97163.03
2022-11-10T00:05:08.508Z,97183.44
2022-11-10T00:09:27.025Z,97197.97
2022-11-10T00:13:57.764Z,97203.31
2022-11-10T00:18:16.756Z,97195.06
2022-11-10T00:22:39.914Z,97195.88
2022-11-10T00:26:59.527Z,97208.22
2022-11-10T00:31:18.139Z,97209.28
2022-11-10T00:35:37.614Z,97173.75
2022-11-10T00:39:58.839Z,97207.03
2022-11-10T00:44:17.312Z,97195.38
2022-11-10T00:48:35.729Z,97222.75
2022-11-10T00:52:54.219Z,97188.69
2022-11-10T00:57:16.240Z,97236.72
2022-11-10T01:01:35.022Z,97246.44
2022-11-10T01:05:53.660Z,97248.97
2022-11-10T01:10:12.539Z,97263.53
2022-11-10T01:14:33.577Z,97262.97
2022-11-10T01:18:53.621Z,97268.88
2022-11-10T01:23:13.751Z,97277.41
2022-11-10T01:27:32.724Z,97266.75
2022-11-10T01:31:54.216Z,97275.34
2022-11-10T01:36:14.970Z,97275.56
2022-11-10T01:40:33.479Z,97274.78
2022-11-10T01:45:43.065Z,97278.75
2022-11-10T01:50:04.896Z,97276.38
2022-11-10T01:54:29.283Z,97293.56
2022-11-10T01:58:56.597Z,97291.97
2022-11-10T02:03:24.510Z,97287.63
2022-11-10T02:07:46.881Z,97303.00
2022-11-10T02:12:05.858Z,97286.00
2022-11-10T02:16:25.291Z,97294.06
2022-11-10T02:20:49.956Z,97307.94
2022-11-10T02:25:10.466Z,97279.47
2022-11-10T02:29:29.477Z,97323.22
2022-11-10T02:33:48.248Z,97332.44
2022-11-10T02:38:09.687Z,97332.72
2022-11-10T02:42:28.571Z,97331.53
2022-11-10T02:46:47.460Z,97307.28
2022-11-10T02:51:06.507Z,97332.56
2022-11-10T02:55:28.072Z,97342.53
2022-11-10T02:59:46.752Z,97335.69
2022-11-10T03:04:05.919Z,97359.84
2022-11-10T03:08:24.822Z,97377.59
2022-11-10T03:12:45.888Z,97382.31
2022-11-10T03:17:04.579Z,97393.22
2022-11-10T03:21:23.540Z,97392.81
2022-11-10T03:25:42.340Z,97411.06
2022-11-10T03:30:03.517Z,97416.88
2022-11-10T03:34:22.316Z,97427.09
2022-11-10T03:38:41.038Z,97429.41
2022-11-10T03:42:59.536Z,97344.22
2022-11-10T03:47:21.162Z,97398.47
2022-11-10T03:51:40.117Z,97436.50
2022-11-10T03:55:58.561Z,97434.88
2022-11-10T04:00:18.832Z,97446.06
2022-11-10T04:04:52.508Z,97458.22
2022-11-10T04:09:11.936Z,97463.53
2022-11-10T04:13:43.148Z,97474.16
2022-11-10T04:18:21.131Z,97473.72
2022-11-10T04:22:55.235Z,97480.34
2022-11-10T04:27:14.039Z,97486.59
2022-11-10T04:31:37.495Z,97482.19
2022-11-10T04:35:55.984Z,97480.09
2022-11-10T04:40:18.121Z,97470.25
2022-11-10T04:44:36.515Z,97498.56
2022-11-10T04:48:57.680Z,97428.06
2022-11-10T04:53:16.360Z,97507.91
2022-11-10T04:57:37.691Z,97519.69
2022-11-10T05:01:56.280Z,97519.56
2022-11-10T05:06:15.149Z,97527.00
2022-11-10T05:10:34.431Z,97535.06
2022-11-10T05:14:56.120Z,97531.66
2022-11-10T05:19:15.026Z,97536.63
2022-11-10T05:23:44.162Z,97542.81
2022-11-10T05:28:03.485Z,97557.44
2022-11-10T05:32:24.741Z,97560.13
2022-11-10T05:36:43.173Z,97557.56
2022-11-10T05:41:02.107Z,97547.09
2022-11-10T05:45:21.599Z,97591.22
2022-11-10T05:49:43.015Z,97597.19
2022-11-10T05:54:01.960Z,97606.81
2022-11-10T05:58:20.564Z,97613.13
2022-11-10T06:02:39.893Z,97609.94
2022-11-10T06:07:01.322Z,97628.06
2022-11-10T06:11:20.617Z,97634.00
2022-11-10T06:15:40.189Z,97634.41
2022-11-10T06:19:59.097Z,97643.28
2022-11-10T06:24:20.361Z,97653.41
2022-11-10T06:28:39.383Z,97664.44
2022-11-10T06:32:58.389Z,97668.44
2022-11-10T06:37:17.322Z,97676.13
2022-11-10T06:41:38.563Z,97687.38
2022-11-10T06:45:57.091Z,97675.25
2022-11-10T06:50:17.170Z,97695.88
2022-11-10T06:54:35.961Z,97710.72
2022-11-10T06:58:57.043Z,97723.50
2022-11-10T07:03:18.281Z,97743.44
2022-11-10T07:07:37.264Z,97751.84
2022-11-10T07:11:57.428Z,97748.59
2022-11-10T07:16:24.209Z,97745.97
2022-11-10T07:20:44.107Z,97728.06
2022-11-10T07:25:02.862Z,97778.72
2022-11-10T07:29:21.437Z,97774.63
2022-11-10T07:33:44.144Z,97782.19
2022-11-10T07:38:07.408Z,97801.34
2022-11-10T07:42:26.167Z,97804.72
2022-11-10T07:46:44.728Z,97804.53
2022-11-10T07:51:05.903Z,97783.28
2022-11-10T07:55:24.420Z,97798.56
2022-11-10T07:59:42.915Z,97807.94
2022-11-10T08:04:01.563Z,97830.69
2022-11-10T08:08:23.067Z,97849.63
2022-11-10T08:12:41.740Z,97844.03
2022-11-10T08:17:00.352Z,97845.72
2022-11-10T08:21:18.928Z,97861.59
2022-11-10T08:25:41.978Z,97855.72
2022-11-10T08:30:00.834Z,97833.31
2022-11-10T08:34:19.293Z,97872.28
2022-11-10T08:38:37.982Z,97869.41
2022-11-10T08:43:07.451Z,97887.81
2022-11-10T08:47:26.267Z,97896.38
2022-11-10T08:51:45.038Z,97889.66
2022-11-10T08:56:03.837Z,97905.50
2022-11-10T09:00:25.335Z,97911.09
2022-11-10T09:04:44.825Z,97930.19
2022-11-10T09:09:03.837Z,97929.78
2022-11-10T09:13:29.075Z,97897.09
2022-11-10T09:17:51.092Z,97935.19
2022-11-10T09:22:09.798Z,97940.63
2022-11-10T09:26:28.683Z,97929.47
2022-11-10T09:30:50.380Z,97971.06
2022-11-10T09:35:13.283Z,97979.94
2022-11-10T09:39:32.397Z,97988.06
2022-11-10T09:44:04.764Z,97997.50
2022-11-10T09:48:30.485Z,98019.22
2022-11-10T09:52:55.438Z,98027.34
2022-11-10T09:57:18.759Z,98029.47
2022-11-10T10:01:48.122Z,98036.09
2022-11-10T10:06:13.754Z,98032.94
2022-11-10T10:10:42.515Z,98033.22
2022-11-10T10:15:18.460Z,98028.53
2022-11-10T10:19:49.926Z,97971.88
2022-11-10T10:24:21.538Z,98001.53
2022-11-10T10:28:49.397Z,98020.81
2022-11-10T10:33:19.843Z,98031.06
2022-11-10T10:37:48.826Z,98015.16
2022-11-10T10:42:18.971Z,98024.84
2022-11-10T10:46:48.952Z,98017.53
2022-11-10T10:51:08.221Z,98019.91
2022-11-10T10:55:32.963Z,97989.91
2022-11-10T10:59:52.241Z,98017.00
2022-11-10T11:04:36.548Z,98027.41
2022-11-10T11:09:04.499Z,98022.75
2022-11-10T11:13:28.039Z,98026.09
2022-11-10T11:17:58.675Z,97986.91
2022-11-10T11:22:49.756Z,98032.19
2022-11-10T11:27:21.683Z,98026.47
2022-11-10T11:31:53.687Z,97993.72
2022-11-10T11:36:30.791Z,98019.03
2022-11-10T11:41:00.972Z,98022.31
2022-11-10T11:45:30.538Z,97999.41
2022-11-10T11:50:15.634Z,98004.00
2022-11-10T11:54:55.057Z,98011.84
2022-11-10T11:59:51.594Z,98009.34
2022-11-10T12:04:47.649Z,98004.44
2022-11-10T12:09:22.520Z,98015.53
2022-11-10T12:13:56.215Z,98025.06
2022-11-10T12:18:32.388Z,98000.50
2022-11-10T12:23:05.883Z,98017.41
2022-11-10T12:27:33.330Z,98019.16
2022-11-10T12:31:58.696Z,98017.41
2022-11-10T12:36:24.933Z,98001.75
2022-11-10T12:40:50.070Z,98022.38
2022-11-10T12:45:19.980Z,98016.25
2022-11-10T12:49:41.846Z,98018.38
2022-11-10T12:54:03.544Z,98026.00
2022-11-10T12:58:23.057Z,98015.22
2022-11-10T13:02:46.323Z,98006.69
2022-11-10T13:07:13.199Z,98002.03
2022-11-10T13:11:38.040Z,98019.44
2022-11-10T13:15:59.992Z,98038.34
2022-11-10T13:20:53.352Z,98037.72
2022-11-10T13:25:53.578Z,98051.91
2022-11-10T13:30:43.669Z,98056.25
2022-11-10T13:35:51.145Z,98059.47
2022-11-10T13:40:41.175Z,98063.28
2022-11-10T13:45:37.004Z,98060.31
2022-11-10T13:50:10.677Z,98054.13
2022-11-10T13:55:16.885Z,98070.78
2022-11-10T13:59:48.991Z,98057.59
2022-11-10T14:04:10.453Z,98060.97
2022-11-10T14:08:38.589Z,98056.13
2022-11-10T14:13:07.318Z,98060.78
2022-11-10T14:17:31.164Z,98057.53
2022-11-10T14:21:58.550Z,98065.41
2022-11-10T14:26:27.280Z,98074.88
2022-11-10T14:30:55.088Z,98089.22
2022-11-10T14:35:24.396Z,98088.81
2022-11-10T14:39:45.866Z,98083.44
2022-11-10T14:44:08.579Z,98087.31
2022-11-10T14:48:30.343Z,98092.00
2022-11-10T14:52:54.431Z,98032.09
2022-11-10T14:57:21.767Z,98111.53
2022-11-10T15:01:45.019Z,98121.94
2022-11-10T15:06:06.431Z,98127.50
2022-11-10T15:10:29.520Z,98127.72
2022-11-10T15:15:00.950Z,98126.41
2022-11-10T15:19:30.872Z,98144.22
2022-11-10T15:23:59.632Z,98136.13
2022-11-10T15:28:30.069Z,98160.81
2022-11-10T15:32:52.326Z,98167.91
2022-11-10T15:37:30.868Z,98134.59
2022-11-10T15:41:52.904Z,98174.34
2022-11-10T15:46:18.811Z,98181.06
2022-11-10T15:50:40.727Z,98173.19
2022-11-10T15:55:00.395Z,98171.72
2022-11-10T15:59:19.281Z,98173.78
2022-11-10T16:03:38.230Z,98163.81
2022-11-10T16:07:59.976Z,98147.16
2022-11-10T16:12:23.583Z,98170.25
2022-11-10T16:16:44.732Z,98186.09
2022-11-10T16:21:03.367Z,98116.56
2022-11-10T16:25:27.757Z,98179.06
2022-11-10T16:29:50.008Z,98186.31
2022-11-10T16:34:08.843Z,98197.53
2022-11-10T16:38:32.388Z,98198.00
2022-11-10T16:42:54.172Z,98196.78
2022-11-10T16:47:21.809Z,98220.84
2022-11-10T16:51:48.784Z,98221.56
2022-11-10T16:56:08.572Z,98213.56
2022-11-10T17:00:30.904Z,98222.53
2022-11-10T17:04:49.960Z,98200.31
2022-11-10T17:09:17.285Z,98225.31
2022-11-10T17:13:35.846Z,98233.91
2022-11-10T17:18:03.470Z,98235.19
2022-11-10T17:22:25.490Z,98243.66
2022-11-10T17:26:44.962Z,98242.03
2022-11-10T17:31:04.152Z,98247.38
2022-11-10T17:35:26.863Z,98194.91
2022-11-10T17:39:45.562Z,98257.97
2022-11-10T17:44:04.326Z,98262.75
2022-11-10T17:48:22.996Z,98232.03
2022-11-10T17:52:44.931Z,98260.50
2022-11-10T17:57:04.728Z,98251.91
2022-11-10T18:01:24.054Z,98259.31
2022-11-10T18:05:45.752Z,98244.28
2022-11-10T18:10:08.559Z,98221.94
2022-11-10T18:14:27.251Z,98215.03
2022-11-10T18:18:46.070Z,98253.53
2022-11-10T18:23:04.612Z,98238.00
2022-11-10T18:27:27.230Z,98242.34
2022-11-10T18:31:46.054Z,98268.25
2022-11-10T18:36:05.467Z,98266.63
2022-11-10T18:40:24.373Z,98263.91
2022-11-10T18:44:45.893Z,98263.16
2022-11-10T18:49:04.663Z,98269.38
2022-11-10T18:53:23.509Z,98283.34
2022-11-10T18:57:42.737Z,98272.38
2022-11-10T19:02:03.931Z,98291.59
2022-11-10T19:06:23.232Z,98281.03
2022-11-10T19:10:45.224Z,98314.63
2022-11-10T19:15:04.018Z,98293.84
2022-11-10T19:19:25.508Z,98310.25
2022-11-10T19:23:44.537Z,98341.41
2022-11-10T19:28:04.916Z,98349.63
2022-11-10T19:32:24.962Z,98356.34
2022-11-10T19:36:46.519Z,98340.25
2022-11-10T19:41:10.004Z,98358.25
2022-11-10T19:45:28.519Z,98341.50
2022-11-10T19:49:46.872Z,98348.88
2022-11-10T19:54:09.086Z,98370.34
2022-11-10T19:58:28.088Z,98373.44
2022-11-10T20:02:46.898Z,98363.41
2022-11-10T20:07:18.216Z,98361.16
2022-11-10T20:11:39.584Z,98369.34
2022-11-10T20:15:58.129Z,98317.00
2022-11-10T20:20:17.530Z,98374.84
2022-11-10T20:24:36.779Z,98385.69
2022-11-10T20:28:58.025Z,98403.28
2022-11-10T20:33:16.545Z,98395.47
2022-11-10T20:37:36.380Z,98413.06
2022-11-10T20:41:55.108Z,98366.00
2022-11-10T20:50:59.716Z,98401.38
2022-11-10T20:55:26.051Z,98403.22
2022-11-10T20:59:59.200Z,98417.44
2022-11-10T21:04:25.602Z,98388.19
2022-11-10T21:08:45.324Z,98395.31
2022-11-10T21:13:04.482Z,98399.78
2022-11-10T21:17:23.774Z,98406.03
2022-11-10T21:21:45.648Z,98389.31
2022-11-10T21:26:04.648Z,98400.13
2022-11-10T21:30:25.625Z,98409.94
2022-11-10T21:34:44.418Z,98409.31
2022-11-10T21:39:05.666Z,98397.28
2022-11-10T21:43:24.532Z,98410.84
2022-11-10T21:47:43.721Z,98420.91
2022-11-10T21:52:02.444Z,98417.25
2022-11-10T21:56:23.589Z,98421.53
2022-11-10T22:00:42.174Z,98395.00
2022-11-10T22:05:00.990Z,98425.91
2022-11-10T22:09:40.036Z,98414.28
2022-11-10T22:14:14.019Z,98391.78
2022-11-10T22:18:42.221Z,98416.78
2022-11-10T22:23:00.736Z,98399.97
2022-11-10T22:27:19.260Z,98406.31
2022-11-10T22:31:40.585Z,98408.16
2022-11-10T22:36:00.482Z,98395.06
2022-11-10T22:40:37.458Z,98421.03
2022-11-10T22:44:56.294Z,98405.09
2022-11-10T22:49:19.662Z,98431.88
2022-11-10T22:53:40.378Z,98424.53
2022-11-10T22:57:59.153Z,98421.66
2022-11-10T23:02:18.357Z,98426.13
2022-11-10T23:06:39.685Z,98418.34
2022-11-10T23:11:03.432Z,98430.13
2022-11-10T23:15:23.167Z,98446.06
2022-11-10T23:19:41.625Z,98366.50
2022-11-10T23:24:02.864Z,98433.81
2022-11-10T23:28:21.582Z,98433.75
2022-11-10T23:32:40.246Z,98436.22
2022-11-10T23:36:58.789Z,98429.44
2022-11-10T23:41:23.643Z,98420.28
2022-11-10T23:46:05.761Z,98436.97
2022-11-10T23:50:22.912Z,98448.41
2022-11-10T23:54:41.438Z,98448.06
2022-11-10T23:59:02.677Z,98448.44
